Terminal Aerodrome Forecast
Issued by NWS

Home | Current Version | Previous Version | Text Only | Print | Product List | Glossary On
Versions: 1 2 3 4 5 6 7 8 9 10 11 12 13 14 15 16 17
578
FTUS43 KMPX 191720
TAFRNH
TAF
KRNH 191720Z 1918/2018 28006KT P6SM FEW250
     FM200900 00000KT 2SM BR SCT250
     FM201100 00000KT 1/2SM FZFG SCT002
     FM201300 00000KT 2SM BR FEW002 SCT200
     FM201400 VRB03KT P6SM SCT200=

USA.gov is the U.S. government's official web portal to all federal, state and local government web resources and services.